Time;durP1;ratioP1;P1;durP2;ratioP2;P2;SDS_P1;SDS_P2;PMS_P1;PMS_P2;Temp;Humidity;BMP_temperature;BMP_pressure;BME280_temperature;BME280_humidity;BME280_pressure;Samples;Min_cycle;Max_cycle;Signal;HPM_P1;HPM_P2
2023/06/26 00:00:15;;;;;;;4.57;0.95;;;;;;;21.54;58.49;101111.09;7351420;19;20468;-65
2023/06/26 00:02:42;;;;;;;11.38;2.67;;;;;;;21.53;58.61;101117.53;7355580;19;20912;-66
2023/06/26 00:05:09;;;;;;;2.50;0.30;;;;;;;21.51;58.86;101111.53;7357427;19;20023;-64
2023/06/26 00:07:37;;;;;;;5.47;0.40;;;;;;;21.50;58.29;101125.97;7347563;19;20018;-64
2023/06/26 00:10:05;;;;;;;3.55;0.30;;;;;;;21.50;58.75;101121.44;7354041;19;20015;-63
2023/06/26 00:12:33;;;;;;;3.13;0.32;;;;;;;21.48;58.33;101125.38;7355946;19;20007;-64
2023/06/26 00:15:00;;;;;;;3.42;0.55;;;;;;;21.45;58.70;101125.81;7355448;19;20037;-64
2023/06/26 00:17:27;;;;;;;3.80;0.30;;;;;;;21.38;58.42;101133.91;7353079;19;20016;-68
2023/06/26 00:19:55;;;;;;;4.88;0.30;;;;;;;21.34;58.87;101130.00;7355966;19;20043;-63
2023/06/26 00:22:22;;;;;;;3.83;0.40;;;;;;;21.35;58.84;101128.97;7358602;19;20025;-65
2023/06/26 00:24:49;;;;;;;11.27;2.53;;;;;;;21.29;58.68;101137.84;7363387;19;20011;-64
2023/06/26 00:27:17;;;;;;;1.88;0.30;;;;;;;21.25;59.19;101139.31;7362776;19;20016;-65
2023/06/26 00:29:44;;;;;;;3.65;0.43;;;;;;;21.21;59.79;101136.25;7361154;19;20014;-64
2023/06/26 00:32:12;;;;;;;3.53;0.50;;;;;;;21.19;59.56;101142.84;7364032;19;20107;-63
2023/06/26 00:34:39;;;;;;;2.85;0.30;;;;;;;21.12;59.94;101137.53;7363329;19;20078;-64
2023/06/26 00:37:07;;;;;;;3.78;0.30;;;;;;;21.03;59.81;101138.00;7366316;19;19999;-64
2023/06/26 00:39:34;;;;;;;4.30;0.38;;;;;;;21.02;60.92;101137.16;7365469;19;20018;-64
2023/06/26 00:42:02;;;;;;;2.58;0.30;;;;;;;21.02;60.50;101141.69;7363572;19;20038;-64
2023/06/26 00:44:29;;;;;;;6.00;0.40;;;;;;;20.97;60.48;101147.69;7360936;19;20017;-66
2023/06/26 00:46:57;;;;;;;6.32;0.30;;;;;;;20.95;60.83;101146.25;7361541;19;20017;-64
2023/06/26 00:49:26;;;;;;;5.75;0.35;;;;;;;20.89;60.65;101145.22;7313660;19;20018;-64
2023/06/26 00:51:54;;;;;;;2.97;0.30;;;;;;;20.81;60.69;101145.50;7362507;19;20011;-65
2023/06/26 00:54:22;;;;;;;2.65;0.30;;;;;;;20.77;61.25;101150.44;7362476;19;20010;-64
2023/06/26 00:56:49;;;;;;;3.80;0.52;;;;;;;20.76;61.56;101158.69;7361199;19;20010;-64
2023/06/26 00:59:17;;;;;;;4.90;0.60;;;;;;;20.74;61.53;101155.38;7359979;19;20022;-64
2023/06/26 01:01:44;;;;;;;2.17;0.38;;;;;;;20.77;61.88;101157.66;7356528;19;20047;-64
2023/06/26 01:04:17;;;;;;;2.47;0.35;;;;;;;20.77;61.98;101161.16;7361245;19;20025;-65
2023/06/26 01:06:48;;;;;;;3.53;0.50;;;;;;;20.78;61.85;101161.94;7363370;19;20037;-63
2023/06/26 01:09:18;;;;;;;2.25;0.35;;;;;;;20.75;61.87;101165.88;7359932;19;20030;-64
2023/06/26 01:11:46;;;;;;;2.33;0.30;;;;;;;20.71;62.14;101158.50;7362142;19;20011;-64
2023/06/26 01:14:14;;;;;;;3.45;0.50;;;;;;;20.61;62.81;101161.59;7362377;19;20022;-64
2023/06/26 01:19:25;;;;;;;3.60;0.32;;;;;;;20.62;63.32;101173.13;7361809;19;20962;-64
2023/06/26 01:22:00;;;;;;;5.30;0.40;;;;;;;20.58;63.12;101170.03;7362918;19;20015;-65
2023/06/26 01:24:34;;;;;;;3.63;0.40;;;;;;;20.55;63.00;101175.81;7361348;19;20034;-64
2023/06/26 01:27:02;;;;;;;4.15;0.50;;;;;;;20.55;63.19;101180.34;7362084;19;20098;-64
2023/06/26 01:29:32;;;;;;;5.70;0.40;;;;;;;20.55;63.52;101189.19;7358195;19;20106;-64
2023/06/26 01:32:00;;;;;;;3.58;0.30;;;;;;;20.55;63.44;101189.19;7358754;19;20042;-64
2023/06/26 01:34:29;;;;;;;5.82;0.40;;;;;;;20.49;63.49;101185.50;7361364;19;20022;-64
2023/06/26 01:36:56;;;;;;;4.00;0.40;;;;;;;20.51;63.59;101187.97;7364852;19;20030;-64
2023/06/26 01:39:24;;;;;;;3.30;0.40;;;;;;;20.47;63.86;101200.09;7365480;19;20977;-65
2023/06/26 01:41:52;;;;;;;8.88;1.15;;;;;;;20.47;64.00;101197.41;7364346;19;20017;-64
2023/06/26 01:44:24;;;;;;;3.13;0.50;;;;;;;20.46;63.91;101199.28;7361689;19;20037;-65
2023/06/26 01:47:03;;;;;;;3.10;0.53;;;;;;;20.46;64.17;101193.94;7361246;19;20042;-65
2023/06/26 01:49:37;;;;;;;8.48;0.45;;;;;;;20.42;64.56;101200.72;7354177;19;20018;-63
2023/06/26 01:52:14;;;;;;;5.78;0.50;;;;;;;20.41;64.70;101200.94;7359569;19;20145;-64
2023/06/26 01:54:52;;;;;;;3.25;0.50;;;;;;;20.38;64.58;101207.50;7363190;19;20018;-64
2023/06/26 01:57:22;;;;;;;9.80;0.95;;;;;;;20.35;64.66;101199.09;7363366;19;21666;-64
2023/06/26 01:59:52;;;;;;;4.47;0.47;;;;;;;20.28;65.40;101198.22;7366345;19;20018;-65
2023/06/26 02:02:19;;;;;;;4.65;0.60;;;;;;;20.24;65.35;101189.00;7364114;19;20106;-65
2023/06/26 02:04:48;;;;;;;4.32;0.40;;;;;;;20.25;65.45;101190.63;7363306;19;21108;-65
2023/06/26 02:07:16;;;;;;;4.32;0.52;;;;;;;20.24;65.71;101197.00;7362879;19;20022;-64
2023/06/26 02:09:43;;;;;;;4.50;0.40;;;;;;;20.20;65.90;101198.47;7354524;19;20025;-63
2023/06/26 02:12:10;;;;;;;6.03;0.50;;;;;;;20.17;65.81;101193.50;7362553;19;20022;-63
2023/06/26 02:14:38;;;;;;;2.47;0.60;;;;;;;20.17;66.02;101196.19;7362213;19;20437;-64
2023/06/26 02:17:05;;;;;;;3.33;0.50;;;;;;;20.15;65.29;101200.94;7361845;19;20021;-64
2023/06/26 02:19:32;;;;;;;3.05;0.50;;;;;;;20.06;65.72;101203.78;7361787;19;20013;-63
2023/06/26 02:22:00;;;;;;;7.75;0.80;;;;;;;19.99;66.32;101205.66;7363554;19;20098;-64
2023/06/26 02:24:29;;;;;;;6.95;0.98;;;;;;;20.01;67.77;101213.47;7361777;19;20503;-64
2023/06/26 02:26:57;;;;;;;7.35;0.70;;;;;;;20.01;66.42;101205.47;7362406;19;20486;-64
2023/06/26 02:29:28;;;;;;;4.85;0.70;;;;;;;20.01;66.34;101210.81;7359658;19;20044;-64
2023/06/26 02:31:55;;;;;;;4.47;0.45;;;;;;;19.96;66.29;101211.38;7360793;19;20059;-64
2023/06/26 02:34:22;;;;;;;4.15;0.50;;;;;;;19.90;66.82;101206.88;7360270;19;20018;-64
2023/06/26 02:36:49;;;;;;;7.70;0.50;;;;;;;19.90;67.19;101206.88;7363096;19;20014;-64
2023/06/26 02:39:17;;;;;;;4.15;0.50;;;;;;;19.88;67.21;101208.94;7362693;19;20018;-64
2023/06/26 02:41:44;;;;;;;6.55;0.60;;;;;;;19.83;67.81;101205.22;7359239;19;20057;-64
2023/06/26 02:44:12;;;;;;;5.38;0.50;;;;;;;19.84;67.87;101222.91;7361720;19;20460;-64
2023/06/26 02:46:40;;;;;;;6.43;0.60;;;;;;;19.85;67.91;101229.91;7358989;19;20311;-64
2023/06/26 02:49:07;;;;;;;5.30;0.60;;;;;;;19.81;67.72;101237.47;7359035;19;20022;-65
2023/06/26 02:51:35;;;;;;;1.60;0.43;;;;;;;19.80;68.18;101230.50;7362815;19;19998;-65
2023/06/26 02:54:02;;;;;;;3.78;0.68;;;;;;;19.80;67.91;101237.69;7358760;19;22013;-63
2023/06/26 02:56:29;;;;;;;3.30;0.60;;;;;;;19.82;68.47;101240.97;7359840;19;20025;-63
2023/06/26 02:58:57;;;;;;;8.98;0.88;;;;;;;19.77;68.46;101233.56;7359870;19;20960;-64
2023/06/26 03:01:24;;;;;;;5.22;0.50;;;;;;;19.76;68.60;101241.81;7360811;19;20021;-64
2023/06/26 03:03:52;;;;;;;6.85;0.70;;;;;;;19.77;69.09;101243.44;7359419;19;20431;-64
2023/06/26 03:06:20;;;;;;;3.88;0.60;;;;;;;19.77;68.99;101246.91;7361677;19;20498;-64
2023/06/26 03:08:47;;;;;;;5.70;0.70;;;;;;;19.74;69.18;101242.00;7359269;19;20733;-64
2023/06/26 03:11:15;;;;;;;6.35;0.50;;;;;;;19.74;69.03;101241.16;7362081;19;20537;-65
2023/06/26 03:13:42;;;;;;;5.05;0.43;;;;;;;19.72;69.09;101241.38;7362116;19;20021;-64
2023/06/26 03:16:09;;;;;;;6.55;0.50;;;;;;;19.68;69.02;101244.66;7358597;19;20050;-65
2023/06/26 03:18:36;;;;;;;3.67;0.40;;;;;;;19.66;69.28;101236.81;7360031;19;20109;-64
2023/06/26 03:21:04;;;;;;;4.32;0.50;;;;;;;19.63;69.75;101242.59;7360342;19;20026;-64
2023/06/26 03:23:31;;;;;;;7.78;0.55;;;;;;;19.61;69.43;101239.28;7362759;19;20022;-64
2023/06/26 03:25:59;;;;;;;3.83;0.45;;;;;;;19.64;69.61;101258.41;7359712;19;20010;-64
2023/06/26 03:28:26;;;;;;;3.72;0.57;;;;;;;19.62;69.39;101254.28;7360955;19;20011;-64
2023/06/26 03:30:53;;;;;;;4.55;0.50;;;;;;;19.59;69.05;101255.53;7357423;19;20013;-65
2023/06/26 03:33:21;;;;;;;6.20;0.85;;;;;;;19.51;69.55;101255.69;7359413;19;20045;-64
2023/06/26 03:35:48;;;;;;;5.38;0.50;;;;;;;19.51;69.91;101257.53;7359885;19;20014;-63
2023/06/26 03:38:15;;;;;;;6.22;0.60;;;;;;;19.53;69.62;101255.50;7360911;19;20019;-63
2023/06/26 03:40:43;;;;;;;5.25;0.70;;;;;;;19.58;70.14;101255.72;7359690;19;20025;-64
2023/06/26 03:43:10;;;;;;;3.05;0.50;;;;;;;19.61;69.83;101257.97;7358684;19;20025;-64
2023/06/26 03:45:37;;;;;;;4.03;0.55;;;;;;;19.63;69.37;101262.09;7357912;19;20026;-64
2023/06/26 03:48:05;;;;;;;2.70;0.55;;;;;;;19.64;70.17;101262.94;7358535;19;20106;-64
2023/06/26 03:50:32;;;;;;;7.25;0.63;;;;;;;19.65;70.40;101264.56;7358493;19;20010;-63
2023/06/26 03:53:00;;;;;;;6.53;0.70;;;;;;;19.62;70.20;101260.44;7360150;19;20054;-66
2023/06/26 03:55:27;;;;;;;9.27;0.68;;;;;;;19.60;71.10;101273.19;7358631;19;20018;-63
2023/06/26 03:57:54;;;;;;;7.03;0.60;;;;;;;19.59;71.26;101273.38;7357900;19;20025;-64
2023/06/26 04:00:21;;;;;;;8.50;0.90;;;;;;;19.49;71.23;101279.09;7359324;19;20014;-64
2023/06/26 04:02:51;;;;;;;10.05;0.85;;;;;;;19.38;71.27;101276.16;7358518;19;20051;-64
2023/06/26 04:05:18;;;;;;;4.70;0.60;;;;;;;19.29;71.64;101277.34;7354670;19;20025;-64
2023/06/26 04:07:45;;;;;;;4.47;0.57;;;;;;;19.26;72.33;101280.41;7359789;19;20018;-64
2023/06/26 04:10:13;;;;;;;4.70;0.60;;;;;;;19.25;73.07;101284.91;7357711;19;20010;-64
2023/06/26 04:12:40;;;;;;;3.50;0.60;;;;;;;19.26;73.02;101288.41;7359500;19;20234;-64
2023/06/26 04:15:08;;;;;;;4.10;0.50;;;;;;;19.25;72.72;101284.09;7357868;19;20805;-64
2023/06/26 04:17:36;;;;;;;5.13;0.40;;;;;;;19.28;72.64;101289.03;7356415;19;20046;-64
2023/06/26 04:20:06;;;;;;;5.78;0.60;;;;;;;19.29;72.70;101290.69;7359007;19;20023;-64
2023/06/26 04:22:33;;;;;;;5.72;1.25;;;;;;;19.33;73.11;101289.25;7360311;19;20015;-64
2023/06/26 04:25:03;;;;;;;7.35;1.23;;;;;;;19.34;73.82;101286.41;7359377;19;20021;-64
2023/06/26 04:27:31;;;;;;;5.93;0.60;;;;;;;19.33;73.24;101287.44;7358517;19;20014;-64
2023/06/26 04:30:02;;;;;;;4.70;0.70;;;;;;;19.31;73.53;101286.78;7357268;19;20021;-64
2023/06/26 04:32:29;;;;;;;4.88;0.50;;;;;;;19.31;73.17;101299.31;7355358;19;20041;-64
2023/06/26 04:34:57;;;;;;;6.10;0.60;;;;;;;19.30;73.50;101295.81;7358017;19;20515;-64
2023/06/26 04:37:24;;;;;;;5.28;0.60;;;;;;;19.28;73.24;101300.53;7359452;19;20017;-64
2023/06/26 04:39:51;;;;;;;8.40;0.70;;;;;;;19.25;73.98;101303.59;7359069;19;20014;-63
2023/06/26 04:42:21;;;;;;;4.45;0.93;;;;;;;19.26;73.87;101299.91;7356929;19;20015;-64
2023/06/26 04:44:51;;;;;;;6.68;0.60;;;;;;;19.29;73.55;101304.03;7358704;19;20126;-65
2023/06/26 04:47:18;;;;;;;5.07;0.45;;;;;;;19.26;73.63;101307.09;7357044;19;20589;-64
2023/06/26 04:49:46;;;;;;;4.97;0.60;;;;;;;19.25;74.00;101310.78;7356308;19;20022;-63
2023/06/26 04:52:14;;;;;;;7.88;0.65;;;;;;;19.26;73.95;101312.41;7358233;19;20081;-64
2023/06/26 04:54:41;;;;;;;8.80;0.70;;;;;;;19.25;74.06;101314.25;7358253;19;20010;-64
2023/06/26 04:57:09;;;;;;;5.10;0.50;;;;;;;19.23;73.66;101319.00;7357417;19;20014;-64
2023/06/26 04:59:37;;;;;;;8.60;0.93;;;;;;;19.22;73.74;101328.84;7356001;19;20029;-64
2023/06/26 05:02:05;;;;;;;5.97;0.60;;;;;;;19.18;74.06;101326.75;7357222;19;21683;-64
2023/06/26 05:04:32;;;;;;;9.35;0.77;;;;;;;19.21;73.88;101323.69;7354149;19;20090;-64
2023/06/26 05:07:00;;;;;;;7.63;0.45;;;;;;;19.23;74.79;101317.16;7358000;19;20521;-64
2023/06/26 05:09:27;;;;;;;5.55;0.85;;;;;;;19.26;73.80;101313.25;7361867;19;20017;-64
2023/06/26 05:11:54;;;;;;;6.32;0.50;;;;;;;19.29;73.88;101328.06;7365356;19;20601;-64
2023/06/26 05:14:22;;;;;;;6.32;0.52;;;;;;;19.30;73.82;101322.50;7363947;19;20047;-63
2023/06/26 05:16:51;;;;;;;4.10;0.88;;;;;;;19.32;73.68;101331.16;7362473;19;20625;-63
2023/06/26 05:19:18;;;;;;;5.00;0.50;;;;;;;19.30;73.58;101324.38;7364257;19;20939;-64
2023/06/26 05:21:47;;;;;;;4.53;0.50;;;;;;;19.26;74.11;101333.75;7364470;19;20014;-64
2023/06/26 05:24:16;;;;;;;7.65;0.70;;;;;;;19.22;74.28;101328.84;7361601;19;20018;-63
2023/06/26 05:26:44;;;;;;;8.13;0.68;;;;;;;19.25;73.62;101340.16;7364990;19;20325;-64
2023/06/26 05:29:12;;;;;;;5.53;0.75;;;;;;;19.27;73.61;101346.94;7363598;19;20086;-63
2023/06/26 05:31:41;;;;;;;6.18;0.95;;;;;;;19.27;73.34;101348.75;7362798;19;20540;-64
2023/06/26 05:34:10;;;;;;;4.32;0.50;;;;;;;19.27;73.34;101354.09;7363529;19;20053;-64
2023/06/26 05:36:39;;;;;;;8.18;0.60;;;;;;;19.30;73.96;101356.41;7364801;19;20038;-64
2023/06/26 05:39:06;;;;;;;4.13;0.60;;;;;;;19.33;73.27;101370.16;7363171;19;20735;-63
2023/06/26 05:41:34;;;;;;;7.15;0.80;;;;;;;19.34;73.02;101358.47;7364061;19;20025;-64
2023/06/26 05:44:02;;;;;;;6.43;0.75;;;;;;;19.40;72.67;101359.53;7363944;19;20021;-65
2023/06/26 05:46:29;;;;;;;5.82;0.52;;;;;;;19.43;72.15;101361.78;7359930;19;20011;-64
2023/06/26 05:48:57;;;;;;;5.22;0.60;;;;;;;19.43;72.16;101353.78;7362131;19;20007;-64
2023/06/26 05:51:24;;;;;;;8.25;0.60;;;;;;;19.41;72.23;101359.31;7362817;19;20022;-64
2023/06/26 05:53:52;;;;;;;7.63;0.93;;;;;;;19.42;72.05;101357.47;7364075;19;20010;-64
2023/06/26 05:56:20;;;;;;;4.13;0.60;;;;;;;19.46;72.38;101364.09;7365064;19;20005;-64
2023/06/26 05:58:48;;;;;;;5.60;0.70;;;;;;;19.48;72.39;101357.53;7362288;19;20023;-64
2023/06/26 06:01:15;;;;;;;8.73;1.38;;;;;;;19.58;71.93;101355.34;7362639;19;20015;-65
2023/06/26 06:03:42;;;;;;;5.10;0.68;;;;;;;19.73;71.74;101359.69;7362675;19;20594;-65
2023/06/26 06:06:10;;;;;;;5.68;0.60;;;;;;;19.88;71.13;101371.88;7362743;19;20019;-64
2023/06/26 06:08:38;;;;;;;8.02;1.35;;;;;;;19.99;69.71;101370.47;7362449;19;20356;-64
2023/06/26 06:11:05;;;;;;;5.50;0.57;;;;;;;20.05;68.94;101369.69;7329665;19;20025;-63
2023/06/26 06:13:32;;;;;;;4.97;0.73;;;;;;;20.10;68.63;101363.72;7357903;19;20022;-64
2023/06/26 06:16:00;;;;;;;5.78;0.60;;;;;;;20.24;68.39;101358.22;7345306;19;20146;-62
2023/06/26 06:18:27;;;;;;;6.32;0.60;;;;;;;20.28;68.09;101371.97;7356297;19;20011;-64
2023/06/26 06:20:55;;;;;;;3.97;0.60;;;;;;;20.24;68.26;101371.56;7335583;19;20011;-64
2023/06/26 06:23:23;;;;;;;6.38;0.50;;;;;;;20.15;68.04;101369.28;7359059;19;20018;-63
2023/06/26 06:25:50;;;;;;;6.05;0.60;;;;;;;20.15;68.46;101382.66;7358606;19;20017;-65
2023/06/26 06:28:17;;;;;;;7.60;0.80;;;;;;;20.16;68.54;101378.97;7359683;19;20094;-63
2023/06/26 06:30:47;;;;;;;6.68;0.80;;;;;;;20.18;68.82;101388.41;7355759;19;20021;-64
2023/06/26 06:33:15;;;;;;;6.35;0.60;;;;;;;20.21;67.67;101381.84;7354042;19;20014;-64
2023/06/26 06:35:42;;;;;;;3.10;0.50;;;;;;;20.27;67.56;101389.03;7350807;19;20088;-64
2023/06/26 06:38:09;;;;;;;4.70;0.90;;;;;;;20.36;67.93;101390.56;7351776;19;20968;-64
2023/06/26 06:40:37;;;;;;;6.50;0.50;;;;;;;20.38;67.11;101396.50;7353149;19;20053;-64
2023/06/26 06:43:05;;;;;;;7.75;0.65;;;;;;;20.41;66.79;101404.13;7354259;19;20113;-63
2023/06/26 06:45:32;;;;;;;7.95;0.50;;;;;;;20.53;66.45;101405.16;7356832;19;20010;-65
2023/06/26 06:47:59;;;;;;;8.20;0.93;;;;;;;20.51;65.61;101399.22;7354201;19;20011;-64
2023/06/26 06:50:27;;;;;;;7.25;1.02;;;;;;;20.52;66.31;101386.66;7354673;19;20339;-64
2023/06/26 06:52:54;;;;;;;5.20;0.50;;;;;;;20.49;66.26;101395.91;7356821;19;20082;-64
2023/06/26 06:55:21;;;;;;;4.43;0.55;;;;;;;20.44;65.72;101406.41;7332044;19;20097;-64
2023/06/26 06:57:48;;;;;;;6.82;0.50;;;;;;;20.34;65.87;101397.94;7356692;19;20027;-63
2023/06/26 07:00:16;;;;;;;6.75;0.60;;;;;;;20.30;66.59;101412.72;7355466;19;20018;-64
2023/06/26 07:02:45;;;;;;;6.38;1.95;;;;;;;20.25;66.41;101421.34;7356750;19;20047;-64
2023/06/26 07:05:13;;;;;;;4.90;0.50;;;;;;;20.27;66.69;101418.44;7358394;19;20082;-64
2023/06/26 07:07:40;;;;;;;6.75;0.60;;;;;;;20.30;67.67;101431.44;7346177;19;20018;-64
2023/06/26 07:10:10;;;;;;;4.28;0.52;;;;;;;20.30;67.23;101415.38;7346612;19;20018;-64
2023/06/26 07:12:38;;;;;;;5.45;0.60;;;;;;;20.36;66.62;101426.13;7334966;19;20023;-63
2023/06/26 07:15:06;;;;;;;9.75;0.80;;;;;;;20.46;66.39;101428.41;7355917;19;20015;-65
2023/06/26 07:17:34;;;;;;;7.60;0.63;;;;;;;20.47;65.67;101425.53;7355276;19;20019;-65
2023/06/26 07:20:06;;;;;;;8.82;0.63;;;;;;;20.49;65.77;101425.31;7349345;19;20094;-64
2023/06/26 07:22:35;;;;;;;8.13;0.60;;;;;;;20.54;65.79;101430.06;7351129;19;21783;-64
2023/06/26 07:25:04;;;;;;;4.72;0.40;;;;;;;20.55;65.25;101445.91;7347090;19;20427;-64
2023/06/26 07:27:33;;;;;;;5.63;0.50;;;;;;;20.59;65.27;101443.66;7335220;19;21776;-64
2023/06/26 07:30:00;;;;;;;5.20;0.60;;;;;;;20.65;64.00;101434.81;7357032;19;20170;-64
2023/06/26 07:32:28;;;;;;;6.53;0.52;;;;;;;20.67;64.56;101451.50;7330644;19;20006;-63
2023/06/26 07:34:56;;;;;;;4.82;0.70;;;;;;;20.66;65.00;101450.66;7359246;19;20011;-64
2023/06/26 07:37:23;;;;;;;5.70;0.50;;;;;;;20.66;64.59;101447.16;7352950;19;20006;-66
2023/06/26 07:39:51;;;;;;;5.03;0.80;;;;;;;20.74;64.82;101447.78;7349523;19;20673;-63
2023/06/26 07:42:18;;;;;;;7.40;1.05;;;;;;;20.93;64.13;101454.19;7355701;19;20081;-64
2023/06/26 07:44:46;;;;;;;7.20;0.60;;;;;;;21.53;60.56;101445.13;7355734;19;20025;-64
2023/06/26 07:47:13;;;;;;;5.00;0.50;;;;;;;22.15;59.41;101449.03;7352840;19;20028;-63
2023/06/26 07:49:41;;;;;;;5.07;0.55;;;;;;;22.41;58.91;101451.59;7354898;19;20024;-64
2023/06/26 07:52:10;;;;;;;7.15;0.50;;;;;;;22.47;58.93;101463.31;7356808;19;20104;-64
2023/06/26 07:54:38;;;;;;;5.03;0.60;;;;;;;22.43;58.95;101460.25;7353922;19;20033;-64
2023/06/26 07:57:06;;;;;;;7.18;1.48;;;;;;;22.32;58.89;101458.25;7352897;19;21757;-64
2023/06/26 07:59:34;;;;;;;4.20;0.50;;;;;;;22.22;58.82;101460.56;7351268;19;20016;-64
2023/06/26 08:02:02;;;;;;;5.57;0.60;;;;;;;22.22;58.89;101463.25;7353332;19;20675;-64
2023/06/26 08:07:03;;;;;;;4.55;0.60;;;;;;;22.23;58.03;101464.06;7356468;19;20673;-64
2023/06/26 08:09:31;;;;;;;8.10;0.57;;;;;;;22.11;59.40;101461.22;7355664;19;20014;-64
2023/06/26 08:11:59;;;;;;;5.68;0.50;;;;;;;22.10;59.45;101467.63;7355839;19;20081;-64
2023/06/26 08:14:26;;;;;;;3.10;0.50;;;;;;;22.08;58.65;101456.31;7353052;19;20011;-64
2023/06/26 08:16:54;;;;;;;7.70;0.50;;;;;;;22.01;58.45;101472.41;7354314;19;20019;-64
2023/06/26 08:19:21;;;;;;;3.78;0.40;;;;;;;21.92;59.48;101472.81;7354503;19;20113;-65
2023/06/26 08:21:48;;;;;;;7.88;0.80;;;;;;;21.79;59.09;101464.84;7355426;19;20022;-64
2023/06/26 08:24:18;;;;;;;6.82;0.50;;;;;;;21.67;59.49;101473.53;7355646;19;20015;-69
2023/06/26 08:26:46;;;;;;;7.75;0.50;;;;;;;21.61;59.74;101473.53;7354731;19;20038;-64
2023/06/26 08:29:14;;;;;;;2.17;0.50;;;;;;;21.55;60.63;101460.97;7351265;19;20022;-64
2023/06/26 08:31:43;;;;;;;5.65;0.40;;;;;;;21.48;61.17;101455.63;7348684;19;20014;-64
2023/06/26 08:34:10;;;;;;;5.03;0.40;;;;;;;21.75;59.46;101462.56;7354799;19;20022;-63
2023/06/26 08:36:38;;;;;;;4.22;0.30;;;;;;;22.16;56.87;101472.13;7354555;19;20010;-64
2023/06/26 08:39:06;;;;;;;2.78;0.30;;;;;;;22.30;54.52;101462.19;7351159;19;20010;-63
2023/06/26 08:41:33;;;;;;;3.10;0.38;;;;;;;22.26;54.39;101467.13;7354348;19;20038;-63
2023/06/26 08:44:00;;;;;;;3.60;0.57;;;;;;;22.22;53.78;101462.41;7358530;19;20018;-65
2023/06/26 08:46:28;;;;;;;2.55;0.47;;;;;;;22.14;53.71;101472.38;7359328;19;20070;-64
2023/06/26 08:48:59;;;;;;;4.15;0.30;;;;;;;22.12;53.30;101479.78;7360480;19;20763;-65
2023/06/26 08:51:28;;;;;;;3.08;0.40;;;;;;;22.18;52.68;101473.59;7358534;19;20048;-64
2023/06/26 08:53:57;;;;;;;4.95;0.30;;;;;;;22.24;49.75;101477.28;7363015;19;20443;-65
2023/06/26 08:56:28;;;;;;;5.05;1.10;;;;;;;22.30;48.09;101479.06;7361091;19;20506;-65
2023/06/26 08:58:56;;;;;;;2.65;0.40;;;;;;;22.28;48.74;101483.03;7362055;19;20018;-64
2023/06/26 09:01:25;;;;;;;5.32;0.40;;;;;;;22.25;47.67;101486.94;7357102;19;20011;-64
2023/06/26 09:03:53;;;;;;;3.28;0.30;;;;;;;22.18;48.14;101480.81;7352975;19;20685;-64
2023/06/26 09:06:20;;;;;;;2.38;0.20;;;;;;;22.09;47.86;101482.91;7362675;19;20351;-64
2023/06/26 09:08:47;;;;;;;2.78;0.20;;;;;;;22.09;49.08;101482.09;7364733;19;20051;-64
2023/06/26 09:11:15;;;;;;;4.35;0.40;;;;;;;22.17;49.23;101487.19;7360696;19;20010;-64
2023/06/26 09:13:44;;;;;;;3.05;0.28;;;;;;;22.23;46.94;101493.56;7361950;19;20685;-65
2023/06/26 09:16:12;;;;;;;2.90;0.17;;;;;;;22.26;45.76;101491.28;7359039;19;20042;-65
2023/06/26 09:18:42;;;;;;;1.23;0.22;;;;;;;22.27;46.35;101510.88;7360957;19;20018;-64
2023/06/26 09:21:11;;;;;;;4.30;0.30;;;;;;;22.27;46.54;101511.69;7360247;19;20022;-65
2023/06/26 09:23:41;;;;;;;2.08;0.40;;;;;;;22.24;46.61;101504.09;7360211;19;20966;-64
2023/06/26 09:26:08;;;;;;;4.97;0.30;;;;;;;22.21;46.88;101506.34;7360483;19;20014;-66
2023/06/26 09:28:36;;;;;;;5.55;0.40;;;;;;;22.18;46.67;101508.44;7361727;19;20514;-64
2023/06/26 09:31:05;;;;;;;4.43;0.28;;;;;;;22.14;47.21;101525.16;7356773;19;20396;-65
2023/06/26 09:33:36;;;;;;;4.05;0.28;;;;;;;22.08;47.58;101516.13;7357137;19;20093;-65
2023/06/26 09:36:06;;;;;;;3.15;0.20;;;;;;;22.06;47.53;101512.81;7360727;19;20011;-64
2023/06/26 09:38:36;;;;;;;3.40;0.65;;;;;;;22.06;47.58;101511.97;7357859;19;20912;-64
2023/06/26 09:41:03;;;;;;;4.35;0.30;;;;;;;22.08;47.61;101510.75;7355290;19;20011;-64
2023/06/26 09:43:31;;;;;;;3.75;0.30;;;;;;;22.12;47.22;101511.13;7360486;19;20030;-64
2023/06/26 09:46:00;;;;;;;1.02;0.30;;;;;;;22.14;46.91;101512.59;7361632;19;20014;-63
2023/06/26 09:48:29;;;;;;;3.55;0.22;;;;;;;22.17;46.84;101519.38;7360336;19;20014;-64
2023/06/26 09:50:56;;;;;;;2.90;0.20;;;;;;;22.15;46.53;101516.91;7352482;19;20834;-64
2023/06/26 09:53:42;;;;;;;;;;;;;;;22.16;46.42;101510.50;7361248;19;20014;-64
2023/06/26 09:56:17;;;;;;;5.13;0.38;;;;;;;22.17;47.36;101508.66;7357704;19;19972;-64
2023/06/26 09:58:45;;;;;;;1.52;0.32;;;;;;;22.24;47.28;101519.34;7359284;19;20055;-65
2023/06/26 10:01:13;;;;;;;2.58;0.22;;;;;;;22.30;46.24;101519.31;7356942;19;20313;-65
2023/06/26 10:03:41;;;;;;;4.03;0.32;;;;;;;22.38;46.59;101523.63;7359039;19;20018;-64
2023/06/26 10:06:11;;;;;;;5.80;0.30;;;;;;;22.39;45.57;101522.59;7359020;19;20014;-65
2023/06/26 10:08:40;;;;;;;7.72;0.47;;;;;;;22.45;45.61;101541.31;7357992;19;20014;-65
2023/06/26 10:11:15;;;;;;;1.38;0.20;;;;;;;22.52;44.77;101531.38;7330397;19;20017;-64
2023/06/26 10:13:48;;;;;;;4.45;0.30;;;;;;;22.63;44.22;101539.81;7354410;19;20027;-64
2023/06/26 10:16:21;;;;;;;1.60;0.20;;;;;;;22.64;42.65;101544.97;7343681;19;20102;-64
2023/06/26 10:18:56;;;;;;;3.78;0.20;;;;;;;22.66;42.77;101548.25;7354303;19;20026;-63
2023/06/26 10:21:26;;;;;;;2.03;0.20;;;;;;;22.64;43.26;101534.22;7352612;19;20016;-64
2023/06/26 10:23:56;;;;;;;5.35;0.40;;;;;;;22.65;43.43;101538.56;7351367;19;20085;-64
2023/06/26 10:26:24;;;;;;;3.60;0.20;;;;;;;22.73;42.75;101541.03;7358451;19;20623;-64
2023/06/26 10:28:53;;;;;;;0.52;0.20;;;;;;;22.82;42.82;101549.63;7361182;19;20142;-64
2023/06/26 10:31:23;;;;;;;3.60;0.20;;;;;;;22.86;42.42;101540.94;7353868;19;20022;-64
2023/06/26 10:33:50;;;;;;;1.02;0.25;;;;;;;22.94;41.36;101543.38;7347460;19;20003;-64
2023/06/26 10:36:21;;;;;;;2.00;0.30;;;;;;;23.00;41.66;101542.50;7360039;19;20014;-65
2023/06/26 10:38:52;;;;;;;3.65;0.40;;;;;;;23.08;42.14;101545.94;7361167;19;20014;-64
2023/06/26 10:41:22;;;;;;;3.58;0.35;;;;;;;23.15;42.64;101541.38;7361507;19;20017;-64
2023/06/26 10:43:51;;;;;;;7.10;0.38;;;;;;;23.29;42.76;101556.34;7352955;19;20022;-65
2023/06/26 10:46:20;;;;;;;4.40;0.30;;;;;;;23.38;42.86;101547.78;7358010;19;20452;-65
2023/06/26 10:48:57;;;;;;;1.70;0.30;;;;;;;23.44;42.29;101548.78;7336899;19;20021;-64
2023/06/26 10:51:27;;;;;;;2.78;0.30;;;;;;;23.46;42.66;101557.47;7355216;19;20010;-64
2023/06/26 10:53:57;;;;;;;0.57;0.20;;;;;;;23.46;41.67;101552.09;7333423;19;20018;-65
2023/06/26 10:56:45;;;;;;;5.15;0.70;;;;;;;23.46;43.07;101556.66;7358174;19;20046;-65
2023/06/26 10:59:18;;;;;;;2.45;0.20;;;;;;;23.39;42.33;101551.31;7336744;19;20026;-64
2023/06/26 11:01:54;;;;;;;2.53;0.22;;;;;;;23.35;43.78;101545.56;7352543;19;20596;-65
2023/06/26 11:04:41;;;;;;;2.90;0.70;;;;;;;23.32;42.24;101542.47;7340095;19;20015;-65
2023/06/26 11:07:23;;;;;;;8.35;0.55;;;;;;;23.33;42.20;101555.69;7359129;19;20029;-64
2023/06/26 11:10:01;;;;;;;1.65;0.25;;;;;;;23.37;41.84;101548.81;7359209;19;20117;-65
2023/06/26 11:12:39;;;;;;;3.53;0.40;;;;;;;23.40;43.33;101548.41;7353283;19;20073;-65
2023/06/26 11:15:13;;;;;;;3.25;0.30;;;;;;;23.44;41.95;101554.16;7331224;19;20014;-64
2023/06/26 11:17:42;;;;;;;2.80;0.25;;;;;;;23.44;42.84;101543.41;7358453;19;21270;-66
2023/06/26 11:20:13;;;;;;;4.35;1.38;;;;;;;23.49;41.96;101540.91;7358488;19;20021;-64
2023/06/26 11:22:42;;;;;;;3.47;0.30;;;;;;;23.55;42.18;101544.59;7356553;19;20057;-64
2023/06/26 11:25:11;;;;;;;1.33;0.22;;;;;;;23.59;42.28;101540.41;7330888;19;20018;-64
2023/06/26 11:27:40;;;;;;;3.67;0.50;;;;;;;23.70;42.88;101548.56;7347601;19;20025;-64
2023/06/26 11:30:09;;;;;;;2.40;0.30;;;;;;;23.81;42.50;101563.97;7351298;19;20031;-66
2023/06/26 11:32:37;;;;;;;3.50;0.40;;;;;;;23.87;42.70;101562.28;7354215;19;20840;-65
2023/06/26 11:35:07;;;;;;;9.18;0.52;;;;;;;23.99;41.94;101560.47;7357097;19;20007;-65